Time;durP1;ratioP1;P1;durP2;ratioP2;P2;SDS_P1;SDS_P2;PMS_P1;PMS_P2;Temp;Humidity;BMP_temperature;BMP_pressure;BME280_temperature;BME280_humidity;BME280_pressure;Samples;Min_cycle;Max_cycle;Signal;HPM_P1;HPM_P2
2021/05/30 00:00:16;;;;;;;4.88;1.85;;;12.80;90.30;;;;;;4968769;29;20059;-77
2021/05/30 00:02:43;;;;;;;3.92;2.00;;;12.80;90.40;;;;;;4965218;29;20134;-78
2021/05/30 00:05:11;;;;;;;3.75;1.88;;;12.70;90.40;;;;;;4969762;29;20047;-78
2021/05/30 00:07:39;;;;;;;4.15;1.80;;;12.70;90.30;;;;;;4969048;29;20051;-77
2021/05/30 00:10:07;;;;;;;3.10;1.50;;;12.60;90.50;;;;;;4941689;29;20111;-76
2021/05/30 00:12:36;;;;;;;3.67;1.48;;;12.50;90.80;;;;;;4957774;28;20078;-77
2021/05/30 00:15:09;;;;;;;4.10;1.73;;;12.50;91.00;;;;;;4958033;29;20142;-77
2021/05/30 00:17:36;;;;;;;2.80;1.60;;;12.50;91.10;;;;;;4941689;29;20130;-79
2021/05/30 00:20:05;;;;;;;4.38;1.52;;;12.50;91.40;;;;;;4957774;29;20122;-76
2021/05/30 00:22:31;;;;;;;3.42;1.73;;;12.50;91.20;;;;;;4934563;29;20043;-76
2021/05/30 00:24:59;;;;;;;3.67;1.90;;;12.50;91.20;;;;;;4958555;29;20481;-77
2021/05/30 00:27:25;;;;;;;3.40;1.70;;;12.50;91.10;;;;;;4957367;29;20114;-77
2021/05/30 00:29:54;;;;;;;3.30;1.70;;;12.40;91.20;;;;;;4957910;29;20095;-76
2021/05/30 00:32:21;;;;;;;3.90;1.80;;;12.40;91.50;;;;;;4957708;29;20720;-77
2021/05/30 00:34:48;;;;;;;3.83;1.80;;;12.40;91.30;;;;;;4957751;28;20142;-76
2021/05/30 00:37:15;;;;;;;3.15;1.63;;;12.30;91.20;;;;;;4957896;29;20055;-76
2021/05/30 00:39:41;;;;;;;3.40;1.60;;;12.30;91.20;;;;;;4957640;29;20150;-78
2021/05/30 00:42:09;;;;;;;2.90;1.48;;;12.20;91.60;;;;;;4957213;29;20141;-78
2021/05/30 00:44:36;;;;;;;3.80;1.67;;;12.20;91.70;;;;;;4957889;29;20075;-78
2021/05/30 00:47:04;;;;;;;4.20;1.70;;;12.20;91.70;;;;;;4957553;29;20123;-77
2021/05/30 00:49:30;;;;;;;3.13;1.55;;;12.20;91.60;;;;;;4949380;28;20101;-78
2021/05/30 00:51:57;;;;;;;4.60;1.88;;;12.10;91.40;;;;;;4957603;29;20330;-77
2021/05/30 00:54:24;;;;;;;3.17;1.60;;;12.10;91.40;;;;;;4956713;29;20139;-78
2021/05/30 00:56:51;;;;;;;4.72;1.90;;;12.00;91.30;;;;;;4957406;29;20067;-78
2021/05/30 00:59:17;;;;;;;3.17;1.60;;;11.90;91.30;;;;;;4957076;29;20051;-77
2021/05/30 01:01:44;;;;;;;3.80;1.50;;;11.80;91.60;;;;;;4957300;29;20082;-76
2021/05/30 01:04:14;;;;;;;5.60;1.80;;;11.80;92.00;;;;;;4956672;29;20178;-77
2021/05/30 01:06:42;;;;;;;3.38;1.50;;;11.70;92.00;;;;;;4951079;29;20397;-75
2021/05/30 01:09:11;;;;;;;3.42;1.50;;;11.70;92.30;;;;;;4956546;29;20055;-77
2021/05/30 01:11:38;;;;;;;3.97;1.67;;;11.70;92.40;;;;;;4957745;29;20051;-76
2021/05/30 01:14:08;;;;;;;3.85;1.65;;;11.70;92.40;;;;;;4957897;29;20105;-76
2021/05/30 01:16:34;;;;;;;3.58;1.83;;;11.70;92.30;;;;;;4957984;29;20142;-78
2021/05/30 01:19:01;;;;;;;3.65;1.42;;;11.60;92.50;;;;;;4957188;29;20500;-75
2021/05/30 01:21:31;;;;;;;2.80;1.40;;;11.60;92.30;;;;;;4948986;29;20095;-77
2021/05/30 01:24:01;;;;;;;2.95;1.50;;;11.60;92.30;;;;;;4957113;29;20089;-78
2021/05/30 01:26:27;;;;;;;4.40;1.95;;;11.50;92.60;;;;;;4957019;29;20473;-78
2021/05/30 01:28:57;;;;;;;4.25;1.70;;;11.50;92.50;;;;;;4964988;29;20070;-77
2021/05/30 01:31:24;;;;;;;3.70;1.60;;;11.40;92.60;;;;;;4966724;29;20489;-78
2021/05/30 01:33:50;;;;;;;3.78;1.80;;;11.30;92.70;;;;;;4957535;29;20142;-78
2021/05/30 01:36:17;;;;;;;3.35;1.67;;;11.20;92.80;;;;;;4956190;29;20101;-77
2021/05/30 01:38:44;;;;;;;3.03;1.60;;;11.20;93.10;;;;;;4956914;29;20058;-78
2021/05/30 01:41:11;;;;;;;3.47;1.70;;;11.10;93.20;;;;;;4956679;29;20090;-78
2021/05/30 01:43:38;;;;;;;3.47;1.85;;;11.10;93.30;;;;;;4956626;29;20058;-77
2021/05/30 01:46:04;;;;;;;3.50;1.85;;;11.10;93.20;;;;;;4956853;29;20079;-78
2021/05/30 01:48:31;;;;;;;3.67;1.83;;;11.00;93.30;;;;;;4957033;29;20560;-77
2021/05/30 01:50:58;;;;;;;3.90;1.90;;;11.00;93.40;;;;;;4956178;29;20079;-77
2021/05/30 01:53:33;;;;;;;3.65;1.70;;;11.00;93.40;;;;;;4956616;28;20079;-77
2021/05/30 01:58:46;;;;;;;3.42;1.70;;;11.10;93.40;;;;;;4950675;29;20110;-77
2021/05/30 02:01:14;;;;;;;3.45;1.80;;;11.10;93.30;;;;;;4955987;28;20138;-78
2021/05/30 02:03:42;;;;;;;3.00;1.50;;;11.10;93.20;;;;;;4956327;29;20110;-77
2021/05/30 02:06:09;;;;;;;3.00;1.50;;;11.10;93.60;;;;;;4955931;28;20086;-77
2021/05/30 02:08:39;;;;;;;4.28;2.03;;;11.10;93.20;;;;;;4956010;29;20090;-77
2021/05/30 02:11:09;;;;;;;3.30;1.80;;;11.10;93.10;;;;;;4955709;29;20390;-77
2021/05/30 02:13:37;;;;;;;6.75;1.80;;;11.00;93.00;;;;;;4956279;29;20078;-78
2021/05/30 02:16:06;;;;;;;4.47;1.90;;;11.00;93.30;;;;;;4955764;29;20464;-75
2021/05/30 02:18:33;;;;;;;3.92;1.90;;;10.90;93.30;;;;;;4948687;29;20078;-77
2021/05/30 02:21:00;;;;;;;4.10;1.83;;;10.80;93.50;;;;;;4955701;28;20158;-77
2021/05/30 02:23:26;;;;;;;3.45;1.70;;;10.80;93.50;;;;;;4955409;29;20039;-78
2021/05/30 02:25:53;;;;;;;3.30;1.60;;;10.70;93.80;;;;;;4955925;29;20082;-77
2021/05/30 02:28:20;;;;;;;3.60;1.80;;;10.70;93.60;;;;;;4955344;29;20093;-77
2021/05/30 02:30:46;;;;;;;3.50;1.70;;;10.70;93.80;;;;;;4956022;28;20073;-76
2021/05/30 02:33:14;;;;;;;3.30;1.90;;;10.70;93.80;;;;;;4954996;29;20058;-76
2021/05/30 02:35:41;;;;;;;4.68;1.80;;;10.70;93.80;;;;;;4955714;29;20577;-77
2021/05/30 02:38:07;;;;;;;3.25;1.90;;;10.70;93.60;;;;;;4955332;29;20535;-76
2021/05/30 02:40:34;;;;;;;3.58;1.90;;;10.70;93.60;;;;;;4955407;28;20047;-77
2021/05/30 02:43:01;;;;;;;4.20;1.90;;;10.70;93.40;;;;;;4955309;29;20164;-77
2021/05/30 02:45:28;;;;;;;5.05;2.00;;;10.70;93.30;;;;;;4955631;29;20047;-76
2021/05/30 02:47:54;;;;;;;3.53;1.88;;;10.60;93.30;;;;;;4955193;29;20082;-76
2021/05/30 02:50:22;;;;;;;2.95;1.67;;;10.50;93.60;;;;;;4955068;29;20090;-77
2021/05/30 02:52:48;;;;;;;4.40;2.00;;;10.50;93.70;;;;;;4955396;29;20094;-77
2021/05/30 02:55:15;;;;;;;3.40;1.80;;;10.40;94.10;;;;;;4955433;28;20149;-79
2021/05/30 02:57:42;;;;;;;3.65;2.00;;;10.40;94.20;;;;;;4955840;29;20047;-77
2021/05/30 03:00:11;;;;;;;3.50;2.03;;;10.40;93.80;;;;;;4955216;29;20134;-78
2021/05/30 03:02:38;;;;;;;3.65;1.80;;;10.30;93.80;;;;;;4937397;29;20176;-78
2021/05/30 03:05:06;;;;;;;3.40;1.80;;;10.30;94.00;;;;;;4953852;29;20093;-78
2021/05/30 03:07:34;;;;;;;4.93;1.70;;;10.20;94.10;;;;;;4953452;29;20106;-78
2021/05/30 03:10:01;;;;;;;3.83;2.25;;;10.20;93.90;;;;;;4936277;29;20057;-78
2021/05/30 03:12:27;;;;;;;4.30;2.45;;;10.20;94.00;;;;;;4952334;29;20495;-78
2021/05/30 03:14:54;;;;;;;4.47;2.20;;;10.10;93.90;;;;;;4952720;29;20075;-77
2021/05/30 03:17:21;;;;;;;3.42;2.10;;;10.00;94.10;;;;;;4953156;29;20454;-77
2021/05/30 03:19:47;;;;;;;4.65;1.63;;;10.00;94.30;;;;;;4953341;29;20093;-78
2021/05/30 03:22:14;;;;;;;3.30;2.00;;;9.90;94.30;;;;;;4952817;29;20472;-78
2021/05/30 03:24:41;;;;;;;3.63;1.98;;;9.90;94.50;;;;;;4953608;29;20461;-79
2021/05/30 03:27:08;;;;;;;4.13;2.03;;;9.80;94.50;;;;;;4953270;29;20083;-78
2021/05/30 03:29:35;;;;;;;3.10;1.70;;;9.80;94.60;;;;;;4935633;29;20091;-79
2021/05/30 03:32:01;;;;;;;3.45;1.90;;;9.80;94.80;;;;;;4925199;29;20167;-79
2021/05/30 03:34:29;;;;;;;3.75;1.95;;;9.80;95.00;;;;;;4943328;29;20143;-77
2021/05/30 03:36:57;;;;;;;3.67;1.90;;;9.80;95.10;;;;;;4946987;29;20051;-78
2021/05/30 03:39:26;;;;;;;3.67;2.10;;;9.80;95.10;;;;;;4950274;29;20055;-77
2021/05/30 03:41:55;;;;;;;5.45;2.10;;;9.90;95.00;;;;;;4944003;29;20051;-78
2021/05/30 03:44:22;;;;;;;4.82;2.05;;;9.90;94.90;;;;;;4921373;29;20059;-78
2021/05/30 03:46:49;;;;;;;3.75;2.13;;;9.90;94.70;;;;;;4947151;29;20076;-80
2021/05/30 03:49:15;;;;;;;3.30;1.65;;;9.90;94.70;;;;;;4943669;29;20468;-77
2021/05/30 03:51:42;;;;;;;5.05;1.85;;;9.90;94.80;;;;;;4940430;29;20151;-78
2021/05/30 03:54:09;;;;;;;4.20;2.00;;;9.90;95.10;;;;;;4924981;29;20161;-78
2021/05/30 03:56:36;;;;;;;3.67;1.85;;;10.00;94.80;;;;;;4941236;29;20075;-77
2021/05/30 03:59:04;;;;;;;3.63;1.77;;;10.00;94.90;;;;;;4942164;29;20060;-77
2021/05/30 04:01:32;;;;;;;4.00;1.80;;;10.00;94.70;;;;;;4947110;29;20073;-78
2021/05/30 04:03:59;;;;;;;3.30;1.77;;;10.10;94.70;;;;;;4955279;29;20098;-78
2021/05/30 04:06:25;;;;;;;3.28;1.88;;;10.10;94.60;;;;;;4960034;29;20039;-77
2021/05/30 04:08:52;;;;;;;3.92;1.85;;;10.10;94.80;;;;;;4965031;29;20051;-79
2021/05/30 04:11:19;;;;;;;3.20;1.92;;;10.10;94.90;;;;;;4964822;28;20764;-79
2021/05/30 04:13:45;;;;;;;3.33;1.80;;;10.10;94.60;;;;;;4964936;28;20075;-78
2021/05/30 04:16:13;;;;;;;4.25;2.00;;;10.00;94.70;;;;;;4956748;29;20497;-78
2021/05/30 04:18:40;;;;;;;4.53;2.05;;;10.10;94.50;;;;;;4954905;28;20168;-79
2021/05/30 04:21:07;;;;;;;4.55;2.00;;;10.00;94.50;;;;;;4937891;29;20050;-78
2021/05/30 04:23:34;;;;;;;3.65;2.00;;;10.00;94.70;;;;;;4937506;29;20518;-79
2021/05/30 04:26:00;;;;;;;4.32;2.05;;;10.00;94.90;;;;;;4956986;28;20138;-79
2021/05/30 04:28:27;;;;;;;3.83;2.30;;;9.90;94.90;;;;;;4957898;29;20082;-79
2021/05/30 04:30:54;;;;;;;4.00;2.30;;;9.90;94.90;;;;;;4958332;28;20486;-79
2021/05/30 04:33:21;;;;;;;3.80;2.38;;;9.90;94.80;;;;;;4957967;29;20140;-77
2021/05/30 04:35:48;;;;;;;5.20;2.47;;;9.90;95.00;;;;;;4957903;29;20087;-77
2021/05/30 04:38:17;;;;;;;5.68;2.50;;;9.90;95.40;;;;;;4957630;29;20085;-78
2021/05/30 04:40:44;;;;;;;4.88;2.80;;;9.90;95.50;;;;;;4958289;29;20058;-77
2021/05/30 04:43:11;;;;;;;4.28;2.60;;;9.90;95.60;;;;;;4958028;29;20153;-77
2021/05/30 04:45:37;;;;;;;3.92;2.53;;;9.90;95.80;;;;;;4958140;29;20130;-78
2021/05/30 04:48:05;;;;;;;4.68;2.45;;;9.90;95.90;;;;;;4957831;29;20087;-78
2021/05/30 04:50:33;;;;;;;5.05;2.45;;;9.90;96.00;;;;;;4951798;29;20047;-77
2021/05/30 04:53:00;;;;;;;6.63;2.83;;;9.90;96.00;;;;;;4953830;29;20085;-78
2021/05/30 04:55:27;;;;;;;4.43;2.38;;;10.00;96.00;;;;;;4950436;29;20039;-77
2021/05/30 04:57:53;;;;;;;5.88;2.58;;;10.00;96.00;;;;;;4958015;29;20083;-78
2021/05/30 05:00:21;;;;;;;4.93;2.80;;;10.00;96.10;;;;;;4956989;28;20159;-78
2021/05/30 05:02:48;;;;;;;5.15;2.65;;;10.00;95.90;;;;;;4957249;29;20138;-77
2021/05/30 05:05:15;;;;;;;3.97;2.40;;;10.00;95.90;;;;;;4939387;29;20074;-79
2021/05/30 05:07:44;;;;;;;4.35;2.55;;;10.00;96.10;;;;;;4948281;29;20052;-77
2021/05/30 05:10:12;;;;;;;5.18;2.70;;;10.00;96.40;;;;;;4936216;29;20059;-79
2021/05/30 05:12:39;;;;;;;7.18;3.00;;;10.10;96.20;;;;;;4931231;29;20056;-78
2021/05/30 05:15:07;;;;;;;5.70;2.55;;;10.10;96.20;;;;;;4934107;29;20486;-77
2021/05/30 05:17:34;;;;;;;4.90;2.67;;;10.20;96.30;;;;;;4936665;29;20075;-77
2021/05/30 05:20:01;;;;;;;4.80;2.80;;;10.20;96.50;;;;;;4937804;29;20165;-78
2021/05/30 05:22:27;;;;;;;4.60;2.55;;;10.30;96.40;;;;;;4935797;29;20043;-76
2021/05/30 05:24:55;;;;;;;4.47;2.63;;;10.30;96.50;;;;;;4937426;29;20497;-78
2021/05/30 05:27:21;;;;;;;4.93;2.78;;;10.40;96.40;;;;;;4937064;29;20075;-77
2021/05/30 05:29:48;;;;;;;4.38;2.33;;;10.40;96.40;;;;;;4936969;29;20126;-77
2021/05/30 05:32:15;;;;;;;4.43;2.78;;;10.50;96.30;;;;;;4937247;29;20130;-77
2021/05/30 05:34:41;;;;;;;4.57;2.88;;;10.50;96.40;;;;;;4937434;29;20127;-78
2021/05/30 05:37:08;;;;;;;5.30;3.20;;;10.50;96.30;;;;;;4936477;29;20150;-77
2021/05/30 05:39:34;;;;;;;5.18;3.00;;;10.50;96.30;;;;;;4933443;29;20155;-77
2021/05/30 05:42:02;;;;;;;5.95;3.13;;;10.50;96.30;;;;;;4936882;29;20474;-78
2021/05/30 05:44:29;;;;;;;4.80;2.83;;;10.60;96.30;;;;;;4929571;29;20079;-77
2021/05/30 05:46:55;;;;;;;4.50;2.60;;;10.60;96.40;;;;;;4937304;29;20541;-77
2021/05/30 05:49:22;;;;;;;4.43;2.70;;;10.70;96.40;;;;;;4936839;29;20142;-77
2021/05/30 05:51:48;;;;;;;5.13;2.95;;;10.70;96.40;;;;;;4936504;29;20083;-78
2021/05/30 05:54:15;;;;;;;5.03;2.80;;;10.80;96.30;;;;;;4936605;29;20513;-77
2021/05/30 05:56:42;;;;;;;5.57;3.15;;;10.90;96.30;;;;;;4941470;29;20086;-77
2021/05/30 05:59:10;;;;;;;4.80;2.70;;;11.00;96.20;;;;;;4933509;29;20573;-77
2021/05/30 06:01:36;;;;;;;4.20;2.55;;;11.10;96.10;;;;;;4937079;29;20058;-78
2021/05/30 06:04:03;;;;;;;4.43;2.70;;;11.20;95.90;;;;;;4921005;29;20130;-78
2021/05/30 06:06:32;;;;;;;6.28;3.63;;;11.30;96.20;;;;;;4929968;29;20090;-78
2021/05/30 06:08:59;;;;;;;7.50;4.22;;;11.40;95.80;;;;;;4936962;29;20494;-78
2021/05/30 06:11:26;;;;;;;5.70;3.47;;;11.50;95.80;;;;;;4904108;29;20051;-79
2021/05/30 06:13:53;;;;;;;5.07;2.90;;;11.50;95.60;;;;;;4936987;29;20135;-77
2021/05/30 06:16:20;;;;;;;6.57;3.63;;;11.90;96.10;;;;;;4937377;29;20394;-79
2021/05/30 06:18:47;;;;;;;8.07;4.55;;;11.70;95.80;;;;;;4933579;29;20138;-78
2021/05/30 06:21:14;;;;;;;5.28;3.58;;;11.80;95.50;;;;;;4936138;29;20052;-79
2021/05/30 06:23:41;;;;;;;4.78;3.05;;;11.80;95.40;;;;;;4932320;29;20161;-77
2021/05/30 06:26:10;;;;;;;5.00;3.10;;;12.00;95.30;;;;;;4939897;29;20059;-77
2021/05/30 06:28:37;;;;;;;6.10;3.17;;;12.00;95.30;;;;;;4936829;29;20531;-77
2021/05/30 06:31:04;;;;;;;5.32;2.88;;;12.10;95.30;;;;;;4935427;28;20690;-77
2021/05/30 06:33:32;;;;;;;6.13;3.20;;;12.10;95.10;;;;;;4928403;29;20058;-75
2021/05/30 06:35:58;;;;;;;4.82;3.00;;;12.20;95.00;;;;;;4919099;29;20135;-77
2021/05/30 06:38:25;;;;;;;5.15;3.00;;;12.40;95.10;;;;;;4919513;29;20138;-76
2021/05/30 06:40:52;;;;;;;4.88;3.15;;;12.40;95.10;;;;;;4930320;29;20143;-78
2021/05/30 06:43:19;;;;;;;4.90;2.72;;;12.40;95.00;;;;;;4932205;29;20071;-76
2021/05/30 06:45:45;;;;;;;4.50;2.65;;;12.50;95.40;;;;;;4936432;29;20071;-78
2021/05/30 06:48:13;;;;;;;5.20;2.70;;;12.60;94.90;;;;;;4935287;29;20126;-78
2021/05/30 06:50:40;;;;;;;5.03;3.03;;;12.70;94.80;;;;;;4935941;29;20508;-78
2021/05/30 06:53:07;;;;;;;4.40;2.60;;;12.70;94.80;;;;;;4936321;29;20053;-78
2021/05/30 06:55:33;;;;;;;4.35;2.13;;;12.90;94.60;;;;;;4934567;29;20075;-78
2021/05/30 06:58:00;;;;;;;4.82;2.38;;;13.00;94.50;;;;;;4927542;29;20082;-79
2021/05/30 07:00:27;;;;;;;4.50;2.53;;;13.10;94.10;;;;;;4936212;29;20069;-78
2021/05/30 07:02:53;;;;;;;5.80;2.53;;;13.20;94.00;;;;;;4935681;29;20466;-78
2021/05/30 07:05:22;;;;;;;4.53;2.47;;;13.30;93.90;;;;;;4935303;29;20058;-77
2021/05/30 07:07:50;;;;;;;4.88;2.00;;;13.30;93.60;;;;;;4935290;29;20100;-77
2021/05/30 07:10:16;;;;;;;3.65;1.88;;;13.40;92.80;;;;;;4934865;29;20146;-77
2021/05/30 07:12:43;;;;;;;3.90;2.20;;;13.60;92.70;;;;;;4918672;29;20143;-76
2021/05/30 07:15:12;;;;;;;3.45;1.80;;;13.70;92.00;;;;;;4935656;29;20394;-78
2021/05/30 07:17:39;;;;;;;4.32;2.00;;;13.90;91.60;;;;;;4935733;29;20130;-78
2021/05/30 07:20:07;;;;;;;4.43;1.85;;;14.00;91.20;;;;;;4918705;29;20051;-78
2021/05/30 07:22:35;;;;;;;3.33;1.60;;;14.10;90.60;;;;;;4936099;29;20047;-78
2021/05/30 07:25:04;;;;;;;5.05;2.00;;;14.20;90.30;;;;;;4936073;29;20075;-77
2021/05/30 07:27:30;;;;;;;4.22;2.10;;;14.30;89.40;;;;;;4928287;29;20127;-77
2021/05/30 07:29:57;;;;;;;3.72;1.65;;;14.40;88.80;;;;;;4918839;29;20142;-78
2021/05/30 07:32:24;;;;;;;3.05;1.75;;;14.50;88.50;;;;;;4935618;29;20118;-78
2021/05/30 07:34:51;;;;;;;2.92;1.67;;;14.60;87.80;;;;;;4918884;29;20541;-78
2021/05/30 07:37:18;;;;;;;4.80;2.13;;;14.70;87.80;;;;;;4935776;29;20527;-78
2021/05/30 07:39:44;;;;;;;3.72;1.90;;;14.70;87.10;;;;;;4935707;29;20490;-79
2021/05/30 07:42:12;;;;;;;4.40;1.83;;;14.80;87.50;;;;;;4935580;29;20582;-77
2021/05/30 07:44:38;;;;;;;3.38;1.90;;;14.90;86.70;;;;;;4918735;29;20488;-76
2021/05/30 07:47:06;;;;;;;4.35;1.52;;;15.00;86.10;;;;;;4935270;29;20087;-79
2021/05/30 07:49:33;;;;;;;3.20;1.70;;;15.20;85.20;;;;;;4935411;29;20075;-78
2021/05/30 07:52:00;;;;;;;4.20;2.17;;;15.30;83.90;;;;;;4935587;29;20059;-78
2021/05/30 07:54:27;;;;;;;3.78;2.03;;;15.30;83.00;;;;;;4935195;29;20083;-76
2021/05/30 07:56:54;;;;;;;3.03;1.77;;;15.40;82.50;;;;;;4935537;29;20164;-78
2021/05/30 07:59:21;;;;;;;3.42;1.73;;;15.40;82.40;;;;;;4936809;29;20138;-78
2021/05/30 08:01:49;;;;;;;3.63;2.00;;;15.50;81.80;;;;;;4940289;29;20146;-78
2021/05/30 08:04:15;;;;;;;4.78;2.42;;;15.50;76.60;;;;;;4939303;29;20501;-77
2021/05/30 08:06:42;;;;;;;4.78;2.03;;;15.60;75.60;;;;;;4940429;29;20079;-77
2021/05/30 08:09:09;;;;;;;3.47;1.70;;;15.70;71.50;;;;;;4957992;29;20564;-76
2021/05/30 08:11:36;;;;;;;3.55;1.60;;;15.70;71.50;;;;;;4961378;29;20473;-78
2021/05/30 08:14:02;;;;;;;3.65;1.77;;;15.80;70.90;;;;;;4967926;29;20043;-78
2021/05/30 08:16:30;;;;;;;4.72;1.70;;;15.80;69.50;;;;;;4967984;29;20584;-79
2021/05/30 08:18:56;;;;;;;4.30;1.60;;;15.90;66.70;;;;;;4968436;29;20051;-79
2021/05/30 08:21:23;;;;;;;2.72;1.42;;;15.90;65.90;;;;;;4968666;29;20070;-78
2021/05/30 08:23:50;;;;;;;4.78;1.75;;;16.00;65.10;;;;;;4970970;28;20555;-80
2021/05/30 08:26:17;;;;;;;3.75;1.65;;;16.10;64.90;;;;;;4968486;29;20047;-78
2021/05/30 08:28:43;;;;;;;3.83;2.20;;;16.10;64.60;;;;;;4968383;29;20055;-79
2021/05/30 08:31:10;;;;;;;4.25;1.95;;;16.20;63.90;;;;;;4968527;28;20043;-78
2021/05/30 08:33:38;;;;;;;3.75;1.83;;;16.20;63.40;;;;;;4968665;29;20078;-78
2021/05/30 08:36:06;;;;;;;3.55;1.70;;;16.30;62.90;;;;;;4946335;29;20105;-76
2021/05/30 08:38:33;;;;;;;3.47;1.83;;;16.30;62.80;;;;;;4957241;29;20106;-77
2021/05/30 08:41:01;;;;;;;3.13;1.85;;;16.40;62.80;;;;;;4957506;28;20138;-76
2021/05/30 08:43:28;;;;;;;3.58;1.70;;;16.40;60.70;;;;;;4956984;29;20047;-76
2021/05/30 08:45:55;;;;;;;2.97;1.50;;;16.40;60.10;;;;;;4957629;29;20087;-78
2021/05/30 08:48:23;;;;;;;2.72;1.30;;;16.50;59.70;;;;;;4957537;29;20580;-78
2021/05/30 08:51:03;;;;;;;5.53;2.08;;;16.50;59.70;;;;;;4956787;29;20074;-77
2021/05/30 08:53:30;;;;;;;2.80;1.40;;;16.60;58.30;;;;;;4953061;29;20051;-76
2021/05/30 08:55:57;;;;;;;2.88;1.40;;;16.70;57.50;;;;;;4956579;29;20054;-76
2021/05/30 08:58:33;;;;;;;3.33;1.60;;;16.80;57.60;;;;;;4956700;29;20174;-79
2021/05/30 09:01:12;;;;;;;3.80;1.70;;;16.90;56.20;;;;;;4957104;29;20540;-78
2021/05/30 09:03:54;;;;;;;4.45;1.73;;;16.90;55.40;;;;;;4950090;29;20087;-77
2021/05/30 09:06:23;;;;;;;3.05;1.40;;;17.00;54.90;;;;;;4956958;28;20632;-76
2021/05/30 09:08:52;;;;;;;3.95;1.27;;;17.00;53.90;;;;;;4956419;29;20142;-77
2021/05/30 09:11:42;;;;;;;3.50;1.50;;;17.10;54.00;;;;;;4941677;29;20051;-76
2021/05/30 09:14:13;;;;;;;2.80;1.58;;;17.30;53.70;;;;;;4956300;29;20047;-76
2021/05/30 09:16:54;;;;;;;3.40;1.60;;;17.30;54.50;;;;;;4952353;28;20059;-76
2021/05/30 09:19:46;;;;;;;5.72;2.10;;;17.40;55.70;;;;;;4938117;29;20104;-78
2021/05/30 09:22:32;;;;;;;3.65;1.83;;;17.50;55.40;;;;;;4944578;29;20075;-79
2021/05/30 09:25:12;;;;;;;3.65;1.60;;;17.60;55.10;;;;;;4962369;29;20051;-75
2021/05/30 09:27:46;;;;;;;2.83;1.30;;;17.70;54.10;;;;;;4940898;28;20047;-76
2021/05/30 09:30:21;;;;;;;3.92;1.40;;;17.80;54.80;;;;;;4960566;28;20051;-76
2021/05/30 09:33:06;;;;;;;3.35;1.75;;;17.90;55.00;;;;;;4962987;29;20102;-78
2021/05/30 09:35:56;;;;;;;3.95;2.05;;;18.00;54.80;;;;;;4941265;29;20090;-76
2021/05/30 09:38:37;;;;;;;4.30;2.20;;;18.10;54.50;;;;;;4939836;29;20051;-77
2021/05/30 09:41:10;;;;;;;4.00;1.70;;;18.10;54.80;;;;;;4939595;29;20508;-77
2021/05/30 09:43:47;;;;;;;3.70;1.60;;;18.20;54.60;;;;;;4952126;28;20119;-77
2021/05/30 09:46:16;;;;;;;3.63;1.90;;;18.30;55.30;;;;;;4950275;29;20086;-77
2021/05/30 09:48:56;;;;;;;5.65;2.20;;;18.30;53.60;;;;;;4956532;29;20449;-76
2021/05/30 09:51:33;;;;;;;3.25;1.70;;;18.40;53.90;;;;;;4956089;29;20063;-76
2021/05/30 09:54:04;;;;;;;4.57;2.30;;;18.40;54.10;;;;;;4956246;28;20126;-77
2021/05/30 09:56:40;;;;;;;3.30;1.90;;;18.50;53.80;;;;;;4923134;29;20083;-77
2021/05/30 09:59:10;;;;;;;3.90;1.90;;;18.50;53.80;;;;;;4938805;29;20110;-77
2021/05/30 10:01:53;;;;;;;3.70;1.90;;;18.50;54.10;;;;;;4955444;29;20138;-79
2021/05/30 10:04:20;;;;;;;4.45;2.00;;;18.50;54.60;;;;;;4954454;28;20051;-77
2021/05/30 10:06:48;;;;;;;4.20;1.92;;;18.40;53.50;;;;;;4955939;29;20051;-79
2021/05/30 10:09:16;;;;;;;4.72;2.42;;;18.40;50.50;;;;;;4955543;28;20497;-78
2021/05/30 10:11:44;;;;;;;12.32;7.03;;;18.40;51.20;;;;;;4939204;29;20525;-78
2021/05/30 10:14:11;;;;;;;3.53;1.92;;;18.40;50.40;;;;;;4938891;29;20089;-78
2021/05/30 10:16:39;;;;;;;3.60;1.75;;;18.40;50.20;;;;;;4963909;29;20070;-77
2021/05/30 10:19:10;;;;;;;3.63;1.83;;;18.40;50.10;;;;;;4964325;28;20071;-77
2021/05/30 10:21:45;;;;;;;3.83;1.40;;;18.40;47.10;;;;;;4965716;28;20043;-77
2021/05/30 10:24:14;;;;;;;2.90;1.40;;;18.30;47.70;;;;;;4964079;29;20234;-79
2021/05/30 10:26:42;;;;;;;3.35;1.50;;;18.30;49.10;;;;;;4963117;29;20079;-78
2021/05/30 10:29:13;;;;;;;3.85;1.52;;;18.20;48.10;;;;;;4962140;29;20074;-77
2021/05/30 10:31:43;;;;;;;3.78;1.60;;;18.20;48.50;;;;;;4959114;29;20453;-79
2021/05/30 10:34:19;;;;;;;4.45;1.60;;;18.20;47.80;;;;;;4971255;29;20050;-79
2021/05/30 10:37:28;;;;;;;4.78;1.60;;;18.30;48.10;;;;;;4934841;29;20058;-77
2021/05/30 10:39:56;;;;;;;3.58;1.55;;;18.30;48.30;;;;;;4911529;28;20078;-77
2021/05/30 10:42:26;;;;;;;3.97;1.85;;;18.30;48.40;;;;;;4959516;28;20057;-78
2021/05/30 10:44:59;;;;;;;3.42;1.75;;;18.40;49.30;;;;;;4943487;29;20103;-77
2021/05/30 10:48:19;;;;;;;2.58;1.20;;;18.50;47.80;;;;;;4951809;29;20051;-78
2021/05/30 10:50:54;;;;;;;4.53;1.60;;;18.50;48.00;;;;;;4937518;29;20051;-77
2021/05/30 10:53:43;;;;;;;3.55;1.42;;;18.50;47.90;;;;;;4944237;29;20079;-76
2021/05/30 10:56:30;;;;;;;3.75;1.70;;;18.60;48.10;;;;;;4953494;29;20073;-77
2021/05/30 10:59:37;;;;;;;3.33;1.77;;;18.70;48.40;;;;;;4954328;29;20062;-77
2021/05/30 11:02:15;;;;;;;2.88;1.50;;;18.80;48.90;;;;;;4949303;29;20043;-78
2021/05/30 11:04:42;;;;;;;3.13;1.50;;;18.80;48.00;;;;;;4938587;29;20039;-77
2021/05/30 11:07:45;;;;;;;4.07;1.85;;;18.90;48.00;;;;;;4935860;29;20150;-78
2021/05/30 11:10:14;;;;;;;3.65;1.80;;;18.90;48.40;;;;;;4954285;29;20079;-77
2021/05/30 11:12:58;;;;;;;3.72;1.77;;;18.90;47.80;;;;;;4954951;29;20051;-80
2021/05/30 11:15:30;;;;;;;;;;;18.90;48.50;;;;;;4955249;29;20495;-78
2021/05/30 11:17:58;;;;;;;3.75;1.65;;;19.00;48.70;;;;;;4955066;29;20391;-78
2021/05/30 11:20:30;;;;;;;3.97;1.90;;;19.00;49.10;;;;;;4955181;29;20511;-77
2021/05/30 11:22:59;;;;;;;3.88;1.80;;;19.00;48.50;;;;;;4919253;29;20131;-78
2021/05/30 11:25:32;;;;;;;5.32;1.80;;;19.00;48.70;;;;;;4954807;29;20081;-78
2021/05/30 11:28:02;;;;;;;3.88;1.80;;;19.10;49.20;;;;;;4922208;29;20134;-77
2021/05/30 11:30:48;;;;;;;4.28;2.15;;;19.10;48.60;;;;;;4954124;29;20166;-79
2021/05/30 11:33:30;;;;;;;3.42;1.80;;;19.10;48.80;;;;;;4952837;28;20047;-78
2021/05/30 11:36:06;;;;;;;3.70;1.58;;;19.10;49.50;;;;;;4961175;28;20054;-78
2021/05/30 11:38:50;;;;;;;6.00;2.10;;;19.10;48.00;;;;;;4963186;29;20183;-78
2021/05/30 11:41:21;;;;;;;4.05;1.92;;;19.10;47.30;;;;;;4942940;29;20048;-77
2021/05/30 11:44:05;;;;;;;3.80;1.92;;;19.20;46.70;;;;;;4959211;28;20076;-78
2021/05/30 11:46:37;;;;;;;5.25;2.00;;;19.30;46.50;;;;;;4952066;29;20110;-76
2021/05/30 11:49:11;;;;;;;4.35;1.73;;;19.40;46.90;;;;;;4960468;29;20051;-78
2021/05/30 11:51:57;;;;;;;4.28;1.80;;;19.50;47.30;;;;;;4955168;29;20130;-78
2021/05/30 11:54:27;;;;;;;4.22;2.00;;;19.60;47.50;;;;;;4944046;29;20043;-79
2021/05/30 11:56:55;;;;;;;3.70;2.00;;;19.80;46.60;;;;;;4958520;29;20091;-78
2021/05/30 11:59:31;;;;;;;3.50;1.80;;;19.90;46.70;;;;;;4957300;29;20548;-78
2021/05/30 12:01:59;;;;;;;3.58;1.60;;;20.10;46.20;;;;;;4956528;28;20090;-78
2021/05/30 12:04:31;;;;;;;3.40;1.52;;;20.20;46.40;;;;;;4954746;29;20146;-78
2021/05/30 12:06:59;;;;;;;3.55;1.80;;;20.30;46.70;;;;;;4960114;29;20107;-76
2021/05/30 12:09:49;;;;;;;2.70;1.40;;;20.40;46.80;;;;;;4948841;29;20055;-75
2021/05/30 12:12:38;;;;;;;4.45;1.77;;;20.60;46.70;;;;;;4961874;29;20511;-75
2021/05/30 12:15:10;;;;;;;3.40;1.70;;;20.80;45.40;;;;;;4958428;29;20494;-78
2021/05/30 12:17:41;;;;;;;3.33;1.70;;;20.90;45.80;;;;;;4955480;28;20437;-78
2021/05/30 12:20:16;;;;;;;3.65;1.90;;;20.90;45.10;;;;;;4955280;29;20051;-77
2021/05/30 12:22:43;;;;;;;3.28;1.63;;;21.10;44.60;;;;;;4955590;28;20633;-78
2021/05/30 12:25:11;;;;;;;3.15;1.50;;;21.20;44.90;;;;;;4954038;29;20139;-77
2021/05/30 12:27:39;;;;;;;2.80;1.48;;;21.30;44.00;;;;;;4954284;28;20480;-78
2021/05/30 12:30:08;;;;;;;3.15;1.60;;;21.30;44.30;;;;;;4955366;29;20150;-78
2021/05/30 12:32:35;;;;;;;3.83;1.85;;;21.40;44.30;;;;;;4954367;29;20497;-77
2021/05/30 12:35:03;;;;;;;4.68;1.40;;;21.60;43.30;;;;;;4955704;29;20078;-78
2021/05/30 12:37:42;;;;;;;4.13;1.70;;;21.60;43.60;;;;;;4947924;29;20051;-78
2021/05/30 12:40:11;;;;;;;3.47;1.92;;;21.70;42.70;;;;;;4954599;29;20079;-78
2021/05/30 12:42:40;;;;;;;3.58;1.52;;;21.60;41.30;;;;;;4956338;29;20473;-78
2021/05/30 12:45:09;;;;;;;3.58;1.63;;;21.50;42.10;;;;;;4955649;28;20051;-78
2021/05/30 12:47:42;;;;;;;3.55;1.60;;;21.30;42.10;;;;;;4957191;29;20047;-76
2021/05/30 12:50:12;;;;;;;5.13;1.90;;;21.20;42.10;;;;;;4955965;29;20597;-78
2021/05/30 12:52:46;;;;;;;3.15;1.50;;;21.20;42.80;;;;;;4955024;29;20126;-76
2021/05/30 12:55:14;;;;;;;3.35;1.65;;;21.10;42.60;;;;;;4945160;29;20564;-78
2021/05/30 12:57:43;;;;;;;4.00;1.70;;;21.30;43.10;;;;;;4954025;29;20397;-79
2021/05/30 13:00:12;;;;;;;3.42;1.58;;;21.30;43.30;;;;;;4957084;29;20496;-78
2021/05/30 13:02:39;;;;;;;2.83;1.40;;;21.30;43.50;;;;;;4957434;29;20450;-77